createdAt,value
2018-02-14T00:01:15.294Z,2.80
2018-02-14T00:03:43.548Z,2.70
2018-02-14T00:06:11.790Z,2.70
2018-02-14T00:08:40.010Z,2.70
2018-02-14T00:11:08.277Z,2.70
2018-02-14T00:13:36.484Z,2.70
2018-02-14T00:16:04.743Z,2.70
2018-02-14T00:18:33.014Z,2.70
2018-02-14T00:21:01.274Z,2.70
2018-02-14T00:23:29.574Z,2.80
2018-02-14T00:25:57.798Z,2.80
2018-02-14T00:28:26.113Z,2.80
2018-02-14T00:30:54.356Z,2.90
2018-02-14T00:33:23.344Z,2.80
2018-02-14T00:35:51.662Z,2.80
2018-02-14T00:38:19.907Z,2.70
2018-02-14T00:40:48.224Z,2.60
2018-02-14T00:43:16.495Z,2.60
2018-02-14T00:45:44.780Z,2.60
2018-02-14T00:48:13.006Z,2.50
2018-02-14T00:50:41.418Z,2.50
2018-02-14T00:53:09.705Z,2.50
2018-02-14T00:55:37.912Z,2.60
2018-02-14T00:58:06.150Z,2.60
2018-02-14T01:00:34.401Z,2.60
2018-02-14T01:03:03.409Z,2.50
2018-02-14T01:05:32.406Z,2.50
2018-02-14T01:08:00.661Z,2.50
2018-02-14T01:10:28.890Z,2.50
2018-02-14T01:12:57.159Z,2.60
2018-02-14T01:15:25.392Z,2.60
2018-02-14T01:17:54.405Z,2.60
2018-02-14T01:20:29.021Z,2.50
2018-02-14T01:22:58.099Z,2.50
2018-02-14T01:25:26.293Z,2.50
2018-02-14T01:27:55.308Z,2.40
2018-02-14T01:30:23.591Z,2.40
2018-02-14T01:32:51.804Z,2.30
2018-02-14T01:35:20.135Z,2.30
2018-02-14T01:37:48.386Z,2.20
2018-02-14T01:40:17.370Z,2.20
2018-02-14T01:42:45.615Z,2.20
2018-02-14T01:45:13.820Z,2.20
2018-02-14T01:47:42.133Z,2.20
2018-02-14T01:50:10.338Z,2.10
2018-02-14T01:52:38.580Z,2.20
2018-02-14T01:55:06.837Z,2.20
2018-02-14T01:57:35.830Z,2.20
2018-02-14T02:00:04.823Z,2.20
2018-02-14T02:02:33.949Z,2.20
2018-02-14T02:05:02.155Z,2.20
2018-02-14T02:07:30.406Z,2.20
2018-02-14T02:09:58.725Z,2.20
2018-02-14T02:12:26.909Z,2.20
2018-02-14T02:14:55.140Z,2.20
2018-02-14T02:17:23.360Z,2.20
2018-02-14T02:19:51.600Z,2.10
2018-02-14T02:22:19.817Z,2.10
2018-02-14T02:24:48.839Z,2.00
2018-02-14T02:27:17.110Z,2.00
2018-02-14T02:29:46.084Z,2.00
2018-02-14T02:32:15.092Z,2.00
2018-02-14T02:34:44.083Z,2.00
2018-02-14T02:37:13.185Z,2.10
2018-02-14T02:39:53.308Z,2.00
2018-02-14T02:42:21.519Z,2.00
2018-02-14T02:44:49.796Z,2.00
2018-02-14T02:47:18.067Z,2.00
2018-02-14T02:49:46.292Z,2.00
2018-02-14T02:52:14.549Z,2.00
2018-02-14T02:54:42.813Z,2.00
2018-02-14T02:57:11.042Z,2.00
2018-02-14T02:59:39.286Z,2.00
2018-02-14T03:02:07.508Z,2.10
2018-02-14T03:04:36.563Z,2.00
2018-02-14T03:07:04.892Z,2.00
2018-02-14T03:09:33.190Z,2.00
2018-02-14T03:12:01.393Z,2.00
2018-02-14T03:14:29.647Z,1.90
2018-02-14T03:16:57.911Z,1.80
2018-02-14T03:19:26.126Z,1.90
2018-02-14T03:21:54.453Z,1.90
2018-02-14T03:24:22.740Z,1.90
2018-02-14T03:26:51.107Z,1.90
2018-02-14T03:29:19.346Z,1.90
2018-02-14T03:31:47.563Z,1.90
2018-02-14T03:34:15.805Z,1.90
2018-02-14T03:36:44.126Z,1.90
2018-02-14T03:39:12.401Z,1.90
2018-02-14T03:41:40.640Z,2.00
2018-02-14T03:44:08.875Z,2.00
2018-02-14T03:46:37.103Z,2.10
2018-02-14T03:49:06.110Z,2.20
2018-02-14T03:51:34.376Z,2.10
2018-02-14T03:54:04.166Z,2.10
2018-02-14T03:56:32.357Z,2.10
2018-02-14T03:59:01.342Z,2.10
2018-02-14T04:01:30.347Z,2.20
2018-02-14T04:03:59.354Z,2.10
2018-02-14T04:06:27.575Z,2.00
2018-02-14T04:08:55.808Z,2.00
2018-02-14T04:11:24.088Z,2.00
2018-02-14T04:13:52.390Z,2.00
2018-02-14T04:16:20.635Z,1.90
2018-02-14T04:18:48.881Z,1.90
2018-02-14T04:21:17.122Z,1.90
2018-02-14T04:23:45.400Z,1.80
2018-02-14T04:26:13.624Z,1.80
2018-02-14T04:28:42.639Z,1.80
2018-02-14T04:31:10.885Z,1.70
2018-02-14T04:33:39.182Z,1.80
2018-02-14T04:36:07.441Z,1.90
2018-02-14T04:38:36.456Z,1.70
2018-02-14T04:41:04.701Z,1.70
2018-02-14T04:43:33.033Z,1.70
2018-02-14T04:46:01.253Z,1.70
2018-02-14T04:48:29.526Z,1.70
2018-02-14T04:50:57.810Z,1.70
2018-02-14T04:53:26.119Z,1.80
2018-02-14T04:55:54.364Z,1.80
2018-02-14T04:58:23.386Z,1.70
2018-02-14T05:00:51.609Z,1.70
2018-02-14T05:03:19.863Z,1.70
2018-02-14T05:05:48.083Z,1.70
2018-02-14T05:08:16.337Z,1.70
2018-02-14T05:10:44.583Z,1.60
2018-02-14T05:13:12.840Z,1.60
2018-02-14T05:15:41.091Z,1.60
2018-02-14T05:18:10.085Z,1.60
2018-02-14T05:20:39.136Z,1.70
2018-02-14T05:23:07.388Z,1.60
2018-02-14T05:25:35.642Z,1.70
2018-02-14T05:28:04.686Z,1.80
2018-02-14T05:30:32.923Z,1.70
2018-02-14T05:33:01.170Z,1.80
2018-02-14T05:35:29.391Z,1.80
2018-02-14T05:37:57.645Z,1.80
2018-02-14T05:40:26.676Z,1.80
2018-02-14T05:42:54.901Z,1.70
2018-02-14T05:45:23.904Z,1.70
2018-02-14T05:47:52.926Z,1.60
2018-02-14T05:50:21.157Z,1.60
2018-02-14T05:52:49.400Z,1.60
2018-02-14T05:55:17.742Z,1.60
2018-02-14T05:57:46.026Z,1.60
2018-02-14T06:00:14.274Z,1.70
2018-02-14T06:02:43.289Z,1.60
2018-02-14T06:05:11.523Z,1.50
2018-02-14T06:07:39.764Z,1.60
2018-02-14T06:10:08.014Z,1.50
2018-02-14T06:12:36.267Z,1.50
2018-02-14T06:15:05.301Z,1.60
2018-02-14T06:17:33.569Z,1.50
2018-02-14T06:20:01.851Z,1.50
2018-02-14T06:22:30.075Z,1.50
2018-02-14T06:24:58.330Z,1.50
2018-02-14T06:27:26.573Z,1.60
2018-02-14T06:29:54.814Z,1.60
2018-02-14T06:32:23.815Z,1.50
2018-02-14T06:34:52.816Z,1.60
2018-02-14T06:37:21.931Z,1.50
2018-02-14T06:39:50.207Z,1.40
2018-02-14T06:42:18.492Z,1.50
2018-02-14T06:44:46.717Z,1.50
2018-02-14T06:47:14.961Z,1.40
2018-02-14T06:49:43.207Z,1.40
2018-02-14T06:52:11.494Z,1.40
2018-02-14T06:54:39.766Z,1.40
2018-02-14T06:57:08.007Z,1.40
2018-02-14T06:59:36.324Z,1.50
2018-02-14T07:02:04.564Z,1.50
2018-02-14T07:04:33.561Z,1.50
2018-02-14T07:07:01.875Z,1.40
2018-02-14T07:09:30.105Z,1.50
2018-02-14T07:11:58.329Z,1.50
2018-02-14T07:14:26.593Z,1.50
2018-02-14T07:16:54.830Z,1.50
2018-02-14T07:19:23.109Z,1.50
2018-02-14T07:21:51.326Z,1.50
2018-02-14T07:24:19.565Z,1.60
2018-02-14T07:26:47.789Z,1.70
2018-02-14T07:29:16.846Z,1.70
2018-02-14T07:31:45.035Z,1.60
2018-02-14T07:34:13.286Z,1.70
2018-02-14T07:36:42.304Z,1.70
2018-02-14T07:39:10.594Z,1.60
2018-02-14T07:41:38.865Z,1.70
2018-02-14T07:44:07.149Z,1.80
2018-02-14T07:46:35.399Z,1.90
2018-02-14T07:49:04.402Z,2.00
2018-02-14T07:51:32.656Z,2.00
2018-02-14T07:54:01.683Z,2.10
2018-02-14T07:56:29.977Z,2.10
2018-02-14T07:58:58.220Z,2.10
2018-02-14T08:01:27.327Z,2.20
2018-02-14T08:03:55.564Z,2.20
2018-02-14T08:06:23.816Z,2.20
2018-02-14T08:08:52.086Z,2.30
2018-02-14T08:11:20.439Z,2.30
2018-02-14T08:13:48.686Z,2.40
2018-02-14T08:16:17.710Z,2.50
2018-02-14T08:18:45.947Z,2.50
2018-02-14T08:21:14.282Z,2.60
2018-02-14T08:23:42.552Z,2.60
2018-02-14T08:26:10.803Z,2.60
2018-02-14T08:28:39.057Z,2.60
2018-02-14T08:31:07.310Z,2.70
2018-02-14T08:33:35.560Z,2.70
2018-02-14T08:36:03.822Z,2.80
2018-02-14T08:38:32.071Z,2.90
2018-02-14T08:41:01.090Z,3.10
2018-02-14T08:43:29.365Z,3.00
2018-02-14T08:45:57.594Z,3.10
2018-02-14T08:48:25.861Z,3.20
2018-02-14T08:50:54.129Z,3.30
2018-02-14T08:53:22.392Z,3.40
2018-02-14T08:55:50.643Z,3.40
2018-02-14T08:58:19.657Z,3.50
2018-02-14T09:00:47.909Z,3.50
2018-02-14T09:03:16.171Z,3.60
2018-02-14T09:05:45.193Z,3.70
2018-02-14T09:08:13.470Z,3.60
2018-02-14T09:10:42.562Z,3.70
2018-02-14T09:13:10.813Z,3.70
2018-02-14T09:15:39.803Z,3.90
2018-02-14T09:18:08.913Z,3.90
2018-02-14T09:20:37.911Z,4.00
2018-02-14T09:23:06.139Z,3.90
2018-02-14T09:25:34.422Z,4.00
2018-02-14T09:28:02.648Z,4.00
2018-02-14T09:30:30.896Z,4.10
2018-02-14T09:35:15.964Z,4.10
2018-02-14T09:37:44.204Z,4.00
2018-02-14T09:40:12.423Z,4.00
2018-02-14T09:42:40.675Z,4.00
2018-02-14T09:45:08.912Z,4.10
2018-02-14T09:47:37.191Z,4.10
2018-02-14T09:50:05.431Z,4.10
2018-02-14T09:52:33.741Z,4.20
2018-02-14T09:55:02.015Z,4.30
2018-02-14T09:57:30.259Z,4.40
2018-02-14T09:59:58.588Z,4.50
2018-02-14T10:02:26.815Z,4.50
2018-02-14T10:04:55.035Z,4.50
2018-02-14T10:07:23.317Z,4.60
2018-02-14T10:09:51.565Z,4.70
2018-02-14T10:12:20.816Z,4.80
2018-02-14T10:14:49.048Z,4.80
2018-02-14T10:17:17.285Z,4.90
2018-02-14T10:19:45.604Z,4.90
2018-02-14T10:22:13.832Z,5.00
2018-02-14T10:24:42.083Z,4.90
2018-02-14T10:27:10.309Z,5.00
2018-02-14T10:29:39.386Z,5.00
2018-02-14T10:32:07.709Z,5.00
2018-02-14T10:34:35.952Z,5.00
2018-02-14T10:37:04.991Z,5.10
2018-02-14T10:39:33.248Z,5.00
2018-02-14T10:42:01.517Z,5.10
2018-02-14T10:44:29.724Z,5.10
2018-02-14T10:46:57.974Z,5.20
2018-02-14T10:49:26.289Z,5.20
2018-02-14T10:51:54.548Z,5.30
2018-02-14T10:54:22.809Z,5.30
2018-02-14T10:56:51.076Z,5.30
2018-02-14T10:59:19.470Z,5.30
2018-02-14T11:01:53.396Z,5.30
2018-02-14T11:04:22.522Z,5.30
2018-02-14T11:06:52.282Z,5.30
2018-02-14T11:09:20.515Z,5.30
2018-02-14T11:11:48.725Z,5.40
2018-02-14T11:14:16.996Z,5.50
2018-02-14T11:16:45.981Z,5.50
2018-02-14T11:19:14.985Z,5.60
2018-02-14T11:21:43.202Z,5.50
2018-02-14T11:24:11.518Z,5.60
2018-02-14T11:26:40.528Z,5.60
2018-02-14T11:29:08.778Z,5.60
2018-02-14T11:31:37.061Z,5.60
2018-02-14T11:34:05.384Z,5.70
2018-02-14T11:36:33.602Z,5.70
2018-02-14T11:39:01.922Z,5.80
2018-02-14T11:41:30.159Z,5.90
2018-02-14T11:43:58.381Z,5.90
2018-02-14T11:46:26.632Z,5.90
2018-02-14T11:48:55.636Z,5.90
2018-02-14T11:51:23.860Z,5.90
2018-02-14T11:53:52.195Z,6.00
2018-02-14T11:56:20.504Z,6.00
2018-02-14T11:58:50.658Z,6.00
2018-02-14T12:01:19.037Z,6.00
2018-02-14T12:03:48.406Z,6.10
2018-02-14T12:06:16.688Z,6.10
2018-02-14T12:08:44.943Z,6.10
2018-02-14T12:11:13.323Z,6.10
2018-02-14T12:13:41.593Z,6.20
2018-02-14T12:16:09.866Z,6.20
2018-02-14T12:18:38.087Z,6.20
2018-02-14T12:21:06.411Z,6.20
2018-02-14T12:23:34.691Z,6.30
2018-02-14T12:26:02.940Z,6.30
2018-02-14T12:28:31.247Z,6.40
2018-02-14T12:30:59.525Z,6.40
2018-02-14T12:33:27.773Z,6.40
2018-02-14T12:35:56.775Z,6.40
2018-02-14T12:38:25.782Z,6.40
2018-02-14T12:40:54.089Z,6.40
2018-02-14T12:43:22.323Z,6.40
2018-02-14T12:45:51.327Z,6.50
2018-02-14T12:48:19.566Z,6.40
2018-02-14T12:50:47.891Z,6.50
2018-02-14T12:53:16.136Z,6.40
2018-02-14T12:55:45.144Z,6.40
2018-02-14T12:58:14.154Z,6.50
2018-02-14T13:00:42.429Z,6.40
2018-02-14T13:03:10.674Z,6.60
2018-02-14T13:05:40.573Z,6.70
2018-02-14T13:08:08.830Z,6.60
2018-02-14T13:10:37.173Z,6.70
2018-02-14T13:13:05.395Z,6.70
2018-02-14T13:15:33.641Z,6.80
2018-02-14T13:18:01.875Z,6.80
2018-02-14T13:20:30.258Z,6.90
2018-02-14T13:22:58.473Z,6.90
2018-02-14T13:25:26.727Z,7.00
2018-02-14T13:27:54.975Z,7.00
2018-02-14T13:30:23.977Z,7.10
2018-02-14T13:32:52.977Z,7.10
2018-02-14T13:35:21.960Z,7.10
2018-02-14T13:37:50.995Z,7.10
2018-02-14T13:40:19.225Z,7.00
2018-02-14T13:42:48.232Z,7.10
2018-02-14T13:45:17.213Z,7.10
2018-02-14T13:47:46.215Z,7.00
2018-02-14T13:50:15.240Z,7.10
2018-02-14T13:52:43.503Z,7.00
2018-02-14T13:55:11.785Z,7.10
2018-02-14T13:57:40.038Z,7.10
2018-02-14T14:00:09.096Z,7.00
2018-02-14T14:02:37.317Z,7.00
2018-02-14T14:05:06.337Z,6.90
2018-02-14T14:07:34.565Z,6.90
2018-02-14T14:10:02.843Z,6.90
2018-02-14T14:12:31.072Z,6.90
2018-02-14T14:14:59.327Z,6.90
2018-02-14T14:17:27.609Z,6.80
2018-02-14T14:19:55.845Z,6.80
2018-02-14T14:22:24.100Z,6.70
2018-02-14T14:24:52.440Z,6.70
2018-02-14T14:27:20.679Z,6.70
2018-02-14T14:29:48.983Z,6.70
2018-02-14T14:32:17.244Z,6.80
2018-02-14T14:34:45.545Z,6.80
2018-02-14T14:37:13.812Z,6.90
2018-02-14T14:39:42.096Z,6.90
2018-02-14T14:42:10.419Z,6.90
2018-02-14T14:44:38.631Z,6.80
2018-02-14T14:47:07.608Z,6.80
2018-02-14T14:49:35.872Z,6.70
2018-02-14T14:52:04.145Z,6.80
2018-02-14T14:54:32.461Z,6.70
2018-02-14T14:57:00.743Z,6.80
2018-02-14T14:59:29.138Z,6.80
2018-02-14T15:01:57.349Z,6.70
2018-02-14T15:04:25.573Z,6.80
2018-02-14T15:06:53.830Z,6.70
2018-02-14T15:09:22.811Z,6.70
2018-02-14T15:11:51.122Z,6.70
2018-02-14T15:14:19.435Z,6.80
2018-02-14T15:16:47.653Z,6.70
2018-02-14T15:19:15.953Z,6.70
2018-02-14T15:21:44.236Z,6.70
2018-02-14T15:24:12.466Z,6.70
2018-02-14T15:26:41.473Z,6.70
2018-02-14T15:29:09.785Z,6.70
2018-02-14T15:31:38.044Z,6.70
2018-02-14T15:34:07.025Z,6.70
2018-02-14T15:36:36.027Z,6.60
2018-02-14T15:39:05.134Z,6.60
2018-02-14T15:41:33.352Z,6.60
2018-02-14T15:44:01.587Z,6.60
2018-02-14T15:46:29.843Z,6.50
2018-02-14T15:48:58.852Z,6.40
2018-02-14T15:51:27.145Z,6.30
2018-02-14T15:53:55.403Z,6.30
2018-02-14T15:56:24.401Z,6.30
2018-02-14T15:58:52.622Z,6.20
2018-02-14T16:01:20.976Z,6.20
2018-02-14T16:03:49.219Z,6.20
2018-02-14T16:06:18.248Z,6.10
2018-02-14T16:08:46.475Z,6.10
2018-02-14T16:11:15.484Z,6.00
2018-02-14T16:13:44.468Z,6.00
2018-02-14T16:16:13.479Z,6.00
2018-02-14T16:18:41.775Z,5.90
2018-02-14T16:21:10.021Z,6.00
2018-02-14T16:23:39.038Z,5.80
2018-02-14T16:26:07.288Z,5.80
2018-02-14T16:28:36.336Z,5.80
2018-02-14T16:31:04.569Z,5.70
2018-02-14T16:33:32.820Z,5.70
2018-02-14T16:36:01.049Z,5.70
2018-02-14T16:38:29.376Z,5.60
2018-02-14T16:40:58.416Z,5.60
2018-02-14T16:43:26.657Z,5.60
2018-02-14T16:45:55.647Z,5.50
2018-02-14T16:48:24.657Z,5.50
2018-02-14T16:50:52.940Z,5.40
2018-02-14T16:53:21.197Z,5.40
2018-02-14T16:55:50.292Z,5.40
2018-02-14T16:58:18.487Z,5.30
2018-02-14T17:00:46.720Z,5.40
2018-02-14T17:03:14.957Z,5.30
2018-02-14T17:05:43.211Z,5.30
2018-02-14T17:08:11.457Z,5.20
2018-02-14T17:10:39.771Z,5.30
2018-02-14T17:13:08.045Z,5.30
2018-02-14T17:15:36.284Z,5.30
2018-02-14T17:18:04.604Z,5.20
2018-02-14T17:20:32.844Z,5.10
2018-02-14T17:23:01.113Z,5.10
2018-02-14T17:25:30.224Z,5.00
2018-02-14T17:27:59.227Z,4.90
2018-02-14T17:30:28.227Z,4.80
2018-02-14T17:32:56.574Z,4.80
2018-02-14T17:35:24.945Z,4.80
2018-02-14T17:37:53.181Z,4.80
2018-02-14T17:40:21.452Z,4.70
2018-02-14T17:42:49.720Z,4.70
2018-02-14T17:45:17.961Z,4.70
2018-02-14T17:47:46.988Z,4.60
2018-02-14T17:50:15.253Z,4.50
2018-02-14T17:52:44.291Z,4.50
2018-02-14T17:55:12.708Z,4.50
2018-02-14T17:57:40.931Z,4.60
2018-02-14T18:00:09.174Z,4.60
2018-02-14T18:02:38.186Z,4.50
2018-02-14T18:05:06.400Z,4.50
2018-02-14T18:07:34.657Z,4.50
2018-02-14T18:10:02.921Z,4.60
2018-02-14T18:12:31.157Z,4.60
2018-02-14T18:14:59.412Z,4.60
2018-02-14T18:17:27.645Z,4.60
2018-02-14T18:19:55.923Z,4.60
2018-02-14T18:22:24.198Z,4.50
2018-02-14T18:24:52.466Z,4.50
2018-02-14T18:27:21.467Z,4.40
2018-02-14T18:29:49.793Z,4.40
2018-02-14T18:32:18.025Z,4.50
2018-02-14T18:34:46.262Z,4.40
2018-02-14T18:37:16.025Z,4.30
2018-02-14T18:39:44.280Z,4.30
2018-02-14T18:42:12.561Z,4.30
2018-02-14T18:44:40.825Z,4.30
2018-02-14T18:47:09.044Z,4.30
2018-02-14T18:49:37.325Z,4.30
2018-02-14T18:52:05.550Z,4.30
2018-02-14T18:54:34.625Z,4.20
2018-02-14T18:57:02.818Z,4.20
2018-02-14T18:59:31.077Z,4.20
2018-02-14T19:02:00.114Z,4.10
2018-02-14T19:04:28.451Z,4.10
2018-02-14T19:06:56.656Z,4.10
2018-02-14T19:09:24.953Z,4.10
2018-02-14T19:11:53.215Z,4.10
2018-02-14T19:14:21.431Z,4.00
2018-02-14T19:16:50.424Z,4.00
2018-02-14T19:19:18.717Z,4.00
2018-02-14T19:21:46.935Z,4.00
2018-02-14T19:24:15.162Z,3.90
2018-02-14T19:26:43.473Z,3.90
2018-02-14T19:29:11.698Z,3.90
2018-02-14T19:31:39.990Z,3.80
2018-02-14T19:34:08.348Z,3.70
2018-02-14T19:36:36.604Z,3.70
2018-02-14T19:39:05.681Z,3.70
2018-02-14T19:41:34.027Z,3.70
2018-02-14T19:44:02.216Z,3.80
2018-02-14T19:46:31.237Z,3.80
2018-02-14T19:48:59.499Z,3.70
2018-02-14T19:51:27.792Z,3.80
2018-02-14T19:53:56.049Z,3.70
2018-02-14T19:56:25.049Z,3.70
2018-02-14T19:58:53.333Z,3.70
2018-02-14T20:01:21.914Z,3.70
2018-02-14T20:03:50.180Z,3.60
2018-02-14T20:06:19.226Z,3.50
2018-02-14T20:08:48.253Z,3.50
2018-02-14T20:11:17.269Z,3.50
2018-02-14T20:13:45.498Z,3.40
2018-02-14T20:16:13.824Z,3.40
2018-02-14T20:18:42.046Z,3.40
2018-02-14T20:21:10.342Z,3.30
2018-02-14T20:23:38.665Z,3.20
2018-02-14T20:26:06.881Z,3.20
2018-02-14T20:28:35.137Z,3.20
2018-02-14T20:31:03.377Z,3.20
2018-02-14T20:33:31.639Z,3.30
2018-02-14T20:36:00.771Z,3.50
2018-02-14T20:38:29.015Z,3.50
2018-02-14T20:40:58.000Z,3.60
2018-02-14T20:43:27.018Z,3.60
2018-02-14T20:45:55.308Z,3.50
2018-02-14T20:48:23.602Z,3.50
2018-02-14T20:53:58.229Z,3.40
2018-02-14T20:56:26.460Z,3.20
2018-02-14T20:58:54.793Z,3.10
2018-02-14T21:03:56.624Z,3.20
2018-02-14T21:06:24.901Z,3.40
2018-02-14T21:08:53.151Z,3.50
2018-02-14T21:11:21.406Z,3.50
2018-02-14T21:13:49.695Z,3.60
2018-02-14T21:16:17.960Z,3.60
2018-02-14T21:18:46.237Z,3.60
2018-02-14T21:21:14.485Z,3.70
2018-02-14T21:23:43.614Z,3.70
2018-02-14T21:26:11.878Z,3.70
2018-02-14T21:28:40.163Z,3.70
2018-02-14T21:31:08.409Z,3.80
2018-02-14T21:33:37.500Z,3.70
2018-02-14T21:36:06.611Z,3.70
2018-02-14T21:38:34.892Z,3.60
2018-02-14T21:41:03.141Z,3.60
2018-02-14T21:43:31.410Z,3.50
2018-02-14T21:45:59.651Z,3.50
2018-02-14T21:48:27.917Z,3.50
2018-02-14T21:50:56.297Z,3.60
2018-02-14T21:53:24.574Z,3.70
2018-02-14T21:55:52.828Z,3.60
2018-02-14T21:58:21.134Z,3.50
2018-02-14T22:00:49.386Z,3.40
2018-02-14T22:03:17.677Z,3.30
2018-02-14T22:05:45.929Z,3.30
2018-02-14T22:08:14.185Z,3.30
2018-02-14T22:10:43.225Z,3.20
2018-02-14T22:13:11.517Z,3.20
2018-02-14T22:15:39.877Z,3.20
2018-02-14T22:18:08.149Z,3.20
2018-02-14T22:20:36.400Z,3.10
2018-02-14T22:23:05.435Z,3.10
2018-02-14T22:25:33.724Z,3.10
2018-02-14T22:28:01.956Z,3.10
2018-02-14T22:30:30.269Z,3.10
2018-02-14T22:32:58.527Z,3.10
2018-02-14T22:35:26.764Z,3.10
2018-02-14T22:37:55.831Z,2.90
2018-02-14T22:40:24.077Z,2.80
2018-02-14T22:42:52.382Z,2.80
2018-02-14T22:45:20.626Z,2.80
2018-02-14T22:47:48.927Z,2.80
2018-02-14T22:50:17.176Z,2.90
2018-02-14T22:52:45.488Z,3.00
2018-02-14T22:55:13.739Z,3.10
2018-02-14T22:57:42.010Z,3.10
2018-02-14T23:00:10.339Z,3.10
2018-02-14T23:02:38.580Z,3.20
2018-02-14T23:05:06.845Z,3.30
2018-02-14T23:07:35.332Z,3.20
2018-02-14T23:10:03.721Z,3.20
2018-02-14T23:12:31.956Z,3.20
2018-02-14T23:15:00.262Z,3.20
2018-02-14T23:17:28.517Z,3.00
2018-02-14T23:19:56.754Z,2.90
2018-02-14T23:22:25.004Z,3.00
2018-02-14T23:24:53.242Z,3.00
2018-02-14T23:27:21.529Z,3.00
2018-02-14T23:29:49.765Z,3.10
2018-02-14T23:32:18.019Z,3.10
2018-02-14T23:34:46.278Z,3.00
2018-02-14T23:37:14.543Z,2.90
2018-02-14T23:39:42.830Z,2.90
2018-02-14T23:42:11.077Z,2.80
2018-02-14T23:44:40.366Z,2.80
2018-02-14T23:47:09.638Z,3.10
2018-02-14T23:49:37.877Z,3.00
2018-02-14T23:52:06.112Z,3.20
2018-02-14T23:54:35.152Z,3.40
2018-02-14T23:57:03.421Z,3.30
2018-02-14T23:59:31.712Z,3.30
